sensor_id;sensor_type;location;lat;lon;timestamp;P1;durP1;ratioP1;P2;durP2;ratioP2
25263;SDS011;13211;51.796;5.808;2022-08-14T00:03:35;10.07;;;4.30;;
25263;SDS011;13211;51.796;5.808;2022-08-14T00:06:03;6.70;;;4.50;;
25263;SDS011;13211;51.796;5.808;2022-08-14T00:08:51;8.80;;;4.57;;
25263;SDS011;13211;51.796;5.808;2022-08-14T00:11:18;7.38;;;4.47;;
25263;SDS011;13211;51.796;5.808;2022-08-14T00:13:47;7.20;;;4.30;;
25263;SDS011;13211;51.796;5.808;2022-08-14T00:16:18;6.97;;;4.55;;
25263;SDS011;13211;51.796;5.808;2022-08-14T00:19:06;8.65;;;4.18;;
25263;SDS011;13211;51.796;5.808;2022-08-14T00:21:47;8.43;;;4.63;;
25263;SDS011;13211;51.796;5.808;2022-08-14T00:24:19;9.05;;;4.38;;
25263;SDS011;13211;51.796;5.808;2022-08-14T00:26:55;7.00;;;4.85;;
25263;SDS011;13211;51.796;5.808;2022-08-14T00:29:31;8.80;;;4.47;;
25263;SDS011;13211;51.796;5.808;2022-08-14T00:34:55;6.25;;;4.40;;
25263;SDS011;13211;51.796;5.808;2022-08-14T00:37:27;7.53;;;4.53;;
25263;SDS011;13211;51.796;5.808;2022-08-14T00:39:58;8.07;;;4.30;;
25263;SDS011;13211;51.796;5.808;2022-08-14T00:42:26;8.07;;;4.43;;
25263;SDS011;13211;51.796;5.808;2022-08-14T00:45:17;9.50;;;4.38;;
25263;SDS011;13211;51.796;5.808;2022-08-14T00:47:48;7.25;;;4.10;;
25263;SDS011;13211;51.796;5.808;2022-08-14T00:50:19;5.80;;;4.35;;
25263;SDS011;13211;51.796;5.808;2022-08-14T00:52:48;8.77;;;5.00;;
25263;SDS011;13211;51.796;5.808;2022-08-14T00:55:18;7.10;;;4.38;;
25263;SDS011;13211;51.796;5.808;2022-08-14T00:57:49;7.65;;;4.50;;
25263;SDS011;13211;51.796;5.808;2022-08-14T01:00:38;5.80;;;4.22;;
25263;SDS011;13211;51.796;5.808;2022-08-14T01:03:17;8.77;;;4.80;;
25263;SDS011;13211;51.796;5.808;2022-08-14T01:05:47;7.97;;;4.82;;
25263;SDS011;13211;51.796;5.808;2022-08-14T01:08:19;6.30;;;4.93;;
25263;SDS011;13211;51.796;5.808;2022-08-14T01:11:15;6.85;;;4.70;;
25263;SDS011;13211;51.796;5.808;2022-08-14T01:13:45;8.98;;;4.40;;
25263;SDS011;13211;51.796;5.808;2022-08-14T01:16:28;6.88;;;4.82;;
25263;SDS011;13211;51.796;5.808;2022-08-14T01:18:58;6.63;;;4.70;;
25263;SDS011;13211;51.796;5.808;2022-08-14T01:21:45;8.57;;;4.97;;
25263;SDS011;13211;51.796;5.808;2022-08-14T01:24:19;7.13;;;4.15;;
25263;SDS011;13211;51.796;5.808;2022-08-14T01:26:59;8.55;;;4.70;;
25263;SDS011;13211;51.796;5.808;2022-08-14T01:29:28;8.35;;;4.82;;
25263;SDS011;13211;51.796;5.808;2022-08-14T01:34:49;9.63;;;5.15;;
25263;SDS011;13211;51.796;5.808;2022-08-14T01:37:44;9.85;;;4.95;;
25263;SDS011;13211;51.796;5.808;2022-08-14T01:40:22;7.35;;;4.85;;
25263;SDS011;13211;51.796;5.808;2022-08-14T01:43:08;9.73;;;5.03;;
25263;SDS011;13211;51.796;5.808;2022-08-14T01:45:47;12.73;;;4.88;;
25263;SDS011;13211;51.796;5.808;2022-08-14T01:48:31;8.90;;;4.95;;
25263;SDS011;13211;51.796;5.808;2022-08-14T01:51:06;9.35;;;4.95;;
25263;SDS011;13211;51.796;5.808;2022-08-14T01:53:46;8.25;;;4.97;;
25263;SDS011;13211;51.796;5.808;2022-08-14T01:56:22;9.80;;;5.38;;
25263;SDS011;13211;51.796;5.808;2022-08-14T01:59:06;9.15;;;5.10;;
25263;SDS011;13211;51.796;5.808;2022-08-14T02:01:46;8.75;;;4.63;;
25263;SDS011;13211;51.796;5.808;2022-08-14T02:07:17;14.63;;;5.05;;
25263;SDS011;13211;51.796;5.808;2022-08-14T02:10:07;7.78;;;4.75;;
25263;SDS011;13211;51.796;5.808;2022-08-14T02:12:41;8.45;;;4.80;;
25263;SDS011;13211;51.796;5.808;2022-08-14T02:15:23;7.45;;;4.78;;
25263;SDS011;13211;51.796;5.808;2022-08-14T02:17:52;7.32;;;4.68;;
25263;SDS011;13211;51.796;5.808;2022-08-14T02:20:19;8.38;;;4.70;;
25263;SDS011;13211;51.796;5.808;2022-08-14T02:22:49;7.80;;;4.80;;
25263;SDS011;13211;51.796;5.808;2022-08-14T02:25:20;11.57;;;5.03;;
25263;SDS011;13211;51.796;5.808;2022-08-14T02:27:53;6.82;;;5.00;;
25263;SDS011;13211;51.796;5.808;2022-08-14T02:30:41;9.18;;;4.53;;
25263;SDS011;13211;51.796;5.808;2022-08-14T02:33:11;9.70;;;4.97;;
25263;SDS011;13211;51.796;5.808;2022-08-14T02:35:45;7.40;;;4.50;;
25263;SDS011;13211;51.796;5.808;2022-08-14T02:38:23;7.97;;;4.70;;
25263;SDS011;13211;51.796;5.808;2022-08-14T02:41:01;7.70;;;4.78;;
25263;SDS011;13211;51.796;5.808;2022-08-14T02:43:37;7.03;;;4.68;;
25263;SDS011;13211;51.796;5.808;2022-08-14T02:46:16;9.95;;;4.55;;
25263;SDS011;13211;51.796;5.808;2022-08-14T02:48:52;7.05;;;4.78;;
25263;SDS011;13211;51.796;5.808;2022-08-14T02:51:34;6.78;;;4.90;;
25263;SDS011;13211;51.796;5.808;2022-08-14T02:54:04;11.73;;;5.05;;
25263;SDS011;13211;51.796;5.808;2022-08-14T02:56:33;7.70;;;4.97;;
25263;SDS011;13211;51.796;5.808;2022-08-14T02:59:26;10.00;;;4.85;;
25263;SDS011;13211;51.796;5.808;2022-08-14T03:02:00;6.45;;;4.70;;
25263;SDS011;13211;51.796;5.808;2022-08-14T03:06:58;8.30;;;4.40;;
25263;SDS011;13211;51.796;5.808;2022-08-14T03:09:33;5.82;;;5.00;;
25263;SDS011;13211;51.796;5.808;2022-08-14T03:12:25;7.80;;;4.90;;
25263;SDS011;13211;51.796;5.808;2022-08-14T03:15:00;8.15;;;5.22;;
25263;SDS011;13211;51.796;5.808;2022-08-14T03:17:41;7.88;;;5.50;;
25263;SDS011;13211;51.796;5.808;2022-08-14T03:20:27;8.85;;;5.13;;
25263;SDS011;13211;51.796;5.808;2022-08-14T03:22:56;7.78;;;4.82;;
25263;SDS011;13211;51.796;5.808;2022-08-14T03:25:30;9.60;;;5.63;;
25263;SDS011;13211;51.796;5.808;2022-08-14T03:28:05;9.68;;;5.57;;
25263;SDS011;13211;51.796;5.808;2022-08-14T03:30:54;9.25;;;4.95;;
25263;SDS011;13211;51.796;5.808;2022-08-14T03:33:25;9.13;;;5.55;;
25263;SDS011;13211;51.796;5.808;2022-08-14T03:36:04;15.65;;;5.72;;
25263;SDS011;13211;51.796;5.808;2022-08-14T03:39:03;6.78;;;5.35;;
25263;SDS011;13211;51.796;5.808;2022-08-14T03:41:45;8.23;;;5.18;;
25263;SDS011;13211;51.796;5.808;2022-08-14T03:44:13;10.85;;;5.70;;
25263;SDS011;13211;51.796;5.808;2022-08-14T03:47:02;10.48;;;5.18;;
25263;SDS011;13211;51.796;5.808;2022-08-14T03:49:31;8.68;;;6.05;;
25263;SDS011;13211;51.796;5.808;2022-08-14T03:51:59;6.63;;;5.53;;
25263;SDS011;13211;51.796;5.808;2022-08-14T03:54:52;8.65;;;5.50;;
25263;SDS011;13211;51.796;5.808;2022-08-14T03:57:21;8.35;;;5.65;;
25263;SDS011;13211;51.796;5.808;2022-08-14T03:59:49;8.63;;;5.65;;
25263;SDS011;13211;51.796;5.808;2022-08-14T04:02:17;8.82;;;5.70;;
25263;SDS011;13211;51.796;5.808;2022-08-14T04:05:07;7.90;;;5.20;;
25263;SDS011;13211;51.796;5.808;2022-08-14T04:07:42;10.70;;;5.90;;
25263;SDS011;13211;51.796;5.808;2022-08-14T04:10:28;8.75;;;5.55;;
25263;SDS011;13211;51.796;5.808;2022-08-14T04:12:58;10.43;;;5.80;;
25263;SDS011;13211;51.796;5.808;2022-08-14T04:15:29;8.27;;;5.93;;
25263;SDS011;13211;51.796;5.808;2022-08-14T04:18:18;7.10;;;5.68;;
25263;SDS011;13211;51.796;5.808;2022-08-14T04:20:46;8.18;;;5.60;;
25263;SDS011;13211;51.796;5.808;2022-08-14T04:23:20;8.68;;;5.60;;
25263;SDS011;13211;51.796;5.808;2022-08-14T04:26:05;9.50;;;6.10;;
25263;SDS011;13211;51.796;5.808;2022-08-14T04:28:52;8.70;;;6.22;;
25263;SDS011;13211;51.796;5.808;2022-08-14T04:31:40;9.68;;;5.93;;
25263;SDS011;13211;51.796;5.808;2022-08-14T04:34:28;9.35;;;6.10;;
25263;SDS011;13211;51.796;5.808;2022-08-14T04:36:55;9.35;;;6.13;;
25263;SDS011;13211;51.796;5.808;2022-08-14T04:39:50;8.48;;;6.20;;
25263;SDS011;13211;51.796;5.808;2022-08-14T04:42:37;9.65;;;6.25;;
25263;SDS011;13211;51.796;5.808;2022-08-14T04:45:25;9.98;;;6.05;;
25263;SDS011;13211;51.796;5.808;2022-08-14T04:47:58;9.23;;;6.30;;
25263;SDS011;13211;51.796;5.808;2022-08-14T04:50:49;10.23;;;6.13;;
25263;SDS011;13211;51.796;5.808;2022-08-14T04:53:28;9.93;;;6.82;;
25263;SDS011;13211;51.796;5.808;2022-08-14T04:56:01;8.65;;;6.05;;
25263;SDS011;13211;51.796;5.808;2022-08-14T04:58:36;12.27;;;6.53;;
25263;SDS011;13211;51.796;5.808;2022-08-14T05:01:05;10.55;;;6.63;;
25263;SDS011;13211;51.796;5.808;2022-08-14T05:06:12;10.32;;;6.70;;
25263;SDS011;13211;51.796;5.808;2022-08-14T05:09:00;11.00;;;6.43;;
25263;SDS011;13211;51.796;5.808;2022-08-14T05:11:28;9.18;;;6.95;;
25263;SDS011;13211;51.796;5.808;2022-08-14T05:14:03;8.73;;;6.72;;
25263;SDS011;13211;51.796;5.808;2022-08-14T05:16:51;11.50;;;6.50;;
25263;SDS011;13211;51.796;5.808;2022-08-14T05:19:22;9.98;;;6.25;;
25263;SDS011;13211;51.796;5.808;2022-08-14T05:21:55;8.32;;;6.47;;
25263;SDS011;13211;51.796;5.808;2022-08-14T05:24:46;7.80;;;7.00;;
25263;SDS011;13211;51.796;5.808;2022-08-14T05:27:18;9.23;;;6.63;;
25263;SDS011;13211;51.796;5.808;2022-08-14T05:29:52;11.77;;;6.65;;
25263;SDS011;13211;51.796;5.808;2022-08-14T05:32:23;10.02;;;7.10;;
25263;SDS011;13211;51.796;5.808;2022-08-14T05:34:58;10.32;;;7.05;;
25263;SDS011;13211;51.796;5.808;2022-08-14T05:37:29;10.73;;;7.05;;
25263;SDS011;13211;51.796;5.808;2022-08-14T05:39:57;9.30;;;6.47;;
25263;SDS011;13211;51.796;5.808;2022-08-14T05:42:29;8.23;;;6.37;;
25263;SDS011;13211;51.796;5.808;2022-08-14T05:45:00;11.25;;;6.90;;
25263;SDS011;13211;51.796;5.808;2022-08-14T05:47:29;9.57;;;6.90;;
25263;SDS011;13211;51.796;5.808;2022-08-14T05:50:08;10.02;;;6.90;;
25263;SDS011;13211;51.796;5.808;2022-08-14T05:52:45;16.83;;;7.30;;
25263;SDS011;13211;51.796;5.808;2022-08-14T05:55:16;9.40;;;6.50;;
25263;SDS011;13211;51.796;5.808;2022-08-14T05:57:55;10.02;;;6.90;;
25263;SDS011;13211;51.796;5.808;2022-08-14T06:00:27;13.05;;;7.72;;
25263;SDS011;13211;51.796;5.808;2022-08-14T06:03:08;9.20;;;7.13;;
25263;SDS011;13211;51.796;5.808;2022-08-14T06:05:39;12.40;;;9.70;;
25263;SDS011;13211;51.796;5.808;2022-08-14T06:08:14;15.23;;;8.15;;
25263;SDS011;13211;51.796;5.808;2022-08-14T06:11:03;12.25;;;7.80;;
25263;SDS011;13211;51.796;5.808;2022-08-14T06:13:46;11.10;;;6.88;;
25263;SDS011;13211;51.796;5.808;2022-08-14T06:16:15;12.30;;;8.00;;
25263;SDS011;13211;51.796;5.808;2022-08-14T06:18:45;12.00;;;7.63;;
25263;SDS011;13211;51.796;5.808;2022-08-14T06:21:21;12.32;;;7.88;;
25263;SDS011;13211;51.796;5.808;2022-08-14T06:23:51;12.82;;;7.28;;
25263;SDS011;13211;51.796;5.808;2022-08-14T06:26:19;11.55;;;6.97;;
25263;SDS011;13211;51.796;5.808;2022-08-14T06:28:48;12.60;;;7.25;;
25263;SDS011;13211;51.796;5.808;2022-08-14T06:31:19;10.48;;;7.03;;
25263;SDS011;13211;51.796;5.808;2022-08-14T06:33:48;10.45;;;7.72;;
25263;SDS011;13211;51.796;5.808;2022-08-14T06:36:35;9.77;;;7.40;;
25263;SDS011;13211;51.796;5.808;2022-08-14T06:39:05;13.25;;;7.20;;
25263;SDS011;13211;51.796;5.808;2022-08-14T06:41:36;10.95;;;7.07;;
25263;SDS011;13211;51.796;5.808;2022-08-14T06:44:25;22.88;;;7.43;;
25263;SDS011;13211;51.796;5.808;2022-08-14T06:46:59;10.00;;;7.05;;
25263;SDS011;13211;51.796;5.808;2022-08-14T06:49:29;11.15;;;7.20;;
25263;SDS011;13211;51.796;5.808;2022-08-14T06:52:12;8.35;;;6.50;;
25263;SDS011;13211;51.796;5.808;2022-08-14T06:54:42;12.63;;;7.30;;
25263;SDS011;13211;51.796;5.808;2022-08-14T06:57:13;8.27;;;6.43;;
25263;SDS011;13211;51.796;5.808;2022-08-14T06:59:40;8.50;;;6.82;;
25263;SDS011;13211;51.796;5.808;2022-08-14T07:02:09;9.50;;;6.95;;
25263;SDS011;13211;51.796;5.808;2022-08-14T07:04:55;7.95;;;6.53;;
25263;SDS011;13211;51.796;5.808;2022-08-14T07:07:49;10.48;;;6.93;;
25263;SDS011;13211;51.796;5.808;2022-08-14T07:10:17;10.18;;;6.90;;
25263;SDS011;13211;51.796;5.808;2022-08-14T07:12:45;8.40;;;6.18;;
25263;SDS011;13211;51.796;5.808;2022-08-14T07:15:30;10.43;;;6.50;;
25263;SDS011;13211;51.796;5.808;2022-08-14T07:18:08;10.82;;;6.72;;
25263;SDS011;13211;51.796;5.808;2022-08-14T07:20:36;7.78;;;6.47;;
25263;SDS011;13211;51.796;5.808;2022-08-14T07:23:08;12.68;;;6.70;;
25263;SDS011;13211;51.796;5.808;2022-08-14T07:25:47;9.10;;;6.32;;
25263;SDS011;13211;51.796;5.808;2022-08-14T07:28:18;12.25;;;6.90;;
25263;SDS011;13211;51.796;5.808;2022-08-14T07:30:52;11.95;;;6.85;;
25263;SDS011;13211;51.796;5.808;2022-08-14T07:33:33;10.47;;;7.20;;
25263;SDS011;13211;51.796;5.808;2022-08-14T07:36:08;8.02;;;6.35;;
25263;SDS011;13211;51.796;5.808;2022-08-14T07:38:59;11.80;;;6.78;;
25263;SDS011;13211;51.796;5.808;2022-08-14T07:41:29;8.57;;;6.38;;
25263;SDS011;13211;51.796;5.808;2022-08-14T07:44:01;9.18;;;6.22;;
25263;SDS011;13211;51.796;5.808;2022-08-14T07:46:50;10.30;;;6.07;;
25263;SDS011;13211;51.796;5.808;2022-08-14T07:49:18;6.70;;;5.93;;
25263;SDS011;13211;51.796;5.808;2022-08-14T07:51:50;11.48;;;6.13;;
25263;SDS011;13211;51.796;5.808;2022-08-14T07:54:17;7.85;;;5.93;;
25263;SDS011;13211;51.796;5.808;2022-08-14T07:56:55;8.15;;;6.07;;
25263;SDS011;13211;51.796;5.808;2022-08-14T07:59:27;10.95;;;5.90;;
25263;SDS011;13211;51.796;5.808;2022-08-14T08:02:09;7.68;;;5.75;;
25263;SDS011;13211;51.796;5.808;2022-08-14T08:04:50;9.85;;;5.80;;
25263;SDS011;13211;51.796;5.808;2022-08-14T08:07:25;8.60;;;5.65;;
25263;SDS011;13211;51.796;5.808;2022-08-14T08:09:56;7.40;;;5.50;;
25263;SDS011;13211;51.796;5.808;2022-08-14T08:12:27;9.73;;;5.32;;
25263;SDS011;13211;51.796;5.808;2022-08-14T08:17:31;5.93;;;5.13;;
25263;SDS011;13211;51.796;5.808;2022-08-14T08:20:11;6.55;;;5.72;;
25263;SDS011;13211;51.796;5.808;2022-08-14T08:22:46;14.98;;;5.53;;
25263;SDS011;13211;51.796;5.808;2022-08-14T08:25:22;7.72;;;5.80;;
25263;SDS011;13211;51.796;5.808;2022-08-14T08:27:54;8.65;;;6.07;;
25263;SDS011;13211;51.796;5.808;2022-08-14T08:30:35;10.48;;;5.38;;
25263;SDS011;13211;51.796;5.808;2022-08-14T08:33:15;9.27;;;6.10;;
25263;SDS011;13211;51.796;5.808;2022-08-14T08:35:48;8.68;;;5.90;;
25263;SDS011;13211;51.796;5.808;2022-08-14T08:38:21;6.40;;;5.43;;
25263;SDS011;13211;51.796;5.808;2022-08-14T08:41:10;9.30;;;5.88;;
25263;SDS011;13211;51.796;5.808;2022-08-14T08:43:38;7.85;;;5.78;;
25263;SDS011;13211;51.796;5.808;2022-08-14T08:46:13;6.93;;;5.72;;
25263;SDS011;13211;51.796;5.808;2022-08-14T08:48:50;8.60;;;6.00;;
25263;SDS011;13211;51.796;5.808;2022-08-14T08:51:19;6.90;;;5.70;;
25263;SDS011;13211;51.796;5.808;2022-08-14T08:54:14;11.02;;;6.13;;
25263;SDS011;13211;51.796;5.808;2022-08-14T08:56:49;9.95;;;6.18;;
25263;SDS011;13211;51.796;5.808;2022-08-14T08:59:31;9.07;;;5.70;;
25263;SDS011;13211;51.796;5.808;2022-08-14T09:02:00;12.63;;;5.50;;
25263;SDS011;13211;51.796;5.808;2022-08-14T09:04:37;9.75;;;6.15;;
25263;SDS011;13211;51.796;5.808;2022-08-14T09:07:24;11.38;;;6.18;;
25263;SDS011;13211;51.796;5.808;2022-08-14T09:09:52;10.10;;;5.43;;
25263;SDS011;13211;51.796;5.808;2022-08-14T09:12:26;6.78;;;5.20;;
25263;SDS011;13211;51.796;5.808;2022-08-14T09:15:03;8.82;;;5.60;;
25263;SDS011;13211;51.796;5.808;2022-08-14T09:17:38;7.50;;;5.45;;
25263;SDS011;13211;51.796;5.808;2022-08-14T09:20:08;11.15;;;5.95;;
25263;SDS011;13211;51.796;5.808;2022-08-14T09:22:52;7.47;;;5.18;;
25263;SDS011;13211;51.796;5.808;2022-08-14T09:25:20;10.02;;;5.53;;
25263;SDS011;13211;51.796;5.808;2022-08-14T09:28:09;10.55;;;5.65;;
25263;SDS011;13211;51.796;5.808;2022-08-14T09:30:42;6.70;;;5.22;;
25263;SDS011;13211;51.796;5.808;2022-08-14T09:36:29;8.45;;;5.70;;
25263;SDS011;13211;51.796;5.808;2022-08-14T09:45:12;7.90;;;4.93;;
25263;SDS011;13211;51.796;5.808;2022-08-14T09:47:50;6.47;;;4.70;;
25263;SDS011;13211;51.796;5.808;2022-08-14T09:50:23;11.25;;;5.05;;
25263;SDS011;13211;51.796;5.808;2022-08-14T09:52:58;6.60;;;4.88;;
25263;SDS011;13211;51.796;5.808;2022-08-14T09:55:32;8.18;;;4.55;;
25263;SDS011;13211;51.796;5.808;2022-08-14T09:58:09;6.60;;;4.93;;
25263;SDS011;13211;51.796;5.808;2022-08-14T10:03:33;9.00;;;4.82;;
25263;SDS011;13211;51.796;5.808;2022-08-14T10:08:46;7.28;;;4.88;;
25263;SDS011;13211;51.796;5.808;2022-08-14T10:11:23;7.90;;;4.47;;
25263;SDS011;13211;51.796;5.808;2022-08-14T10:14:13;5.35;;;4.18;;
25263;SDS011;13211;51.796;5.808;2022-08-14T10:17:01;8.77;;;4.70;;
25263;SDS011;13211;51.796;5.808;2022-08-14T10:19:34;8.35;;;4.38;;
25263;SDS011;13211;51.796;5.808;2022-08-14T10:22:13;6.97;;;3.97;;
25263;SDS011;13211;51.796;5.808;2022-08-14T10:25:11;5.53;;;4.22;;
25263;SDS011;13211;51.796;5.808;2022-08-14T10:27:43;8.15;;;3.90;;
25263;SDS011;13211;51.796;5.808;2022-08-14T10:30:14;9.38;;;4.68;;
25263;SDS011;13211;51.796;5.808;2022-08-14T10:32:51;5.00;;;4.50;;
25263;SDS011;13211;51.796;5.808;2022-08-14T10:35:21;8.10;;;4.15;;
25263;SDS011;13211;51.796;5.808;2022-08-14T10:37:59;6.85;;;4.20;;
25263;SDS011;13211;51.796;5.808;2022-08-14T10:40:28;7.85;;;4.15;;
25263;SDS011;13211;51.796;5.808;2022-08-14T10:43:23;8.27;;;4.10;;
25263;SDS011;13211;51.796;5.808;2022-08-14T10:45:52;5.82;;;3.75;;
25263;SDS011;13211;51.796;5.808;2022-08-14T10:48:58;6.57;;;4.03;;
25263;SDS011;13211;51.796;5.808;2022-08-14T10:51:31;6.30;;;4.25;;
25263;SDS011;13211;51.796;5.808;2022-08-14T10:54:08;4.90;;;4.18;;
25263;SDS011;13211;51.796;5.808;2022-08-14T10:56:57;5.88;;;3.70;;
25263;SDS011;13211;51.796;5.808;2022-08-14T10:59:54;4.07;;;3.67;;
25263;SDS011;13211;51.796;5.808;2022-08-14T11:02:27;5.88;;;4.00;;
25263;SDS011;13211;51.796;5.808;2022-08-14T11:05:17;6.15;;;3.67;;
25263;SDS011;13211;51.796;5.808;2022-08-14T11:10:36;6.57;;;3.60;;
25263;SDS011;13211;51.796;5.808;2022-08-14T11:13:09;4.47;;;3.70;;
25263;SDS011;13211;51.796;5.808;2022-08-14T11:15:42;4.47;;;3.20;;
25263;SDS011;13211;51.796;5.808;2022-08-14T11:18:11;4.75;;;3.55;;
25263;SDS011;13211;51.796;5.808;2022-08-14T11:20:56;6.03;;;3.53;;
25263;SDS011;13211;51.796;5.808;2022-08-14T11:26:06;9.55;;;3.42;;
25263;SDS011;13211;51.796;5.808;2022-08-14T11:28:37;5.00;;;3.55;;
25263;SDS011;13211;51.796;5.808;2022-08-14T11:31:20;7.90;;;3.70;;
25263;SDS011;13211;51.796;5.808;2022-08-14T11:33:50;5.35;;;3.30;;
25263;SDS011;13211;51.796;5.808;2022-08-14T11:36:25;6.80;;;3.80;;
25263;SDS011;13211;51.796;5.808;2022-08-14T11:39:18;6.78;;;3.70;;
25263;SDS011;13211;51.796;5.808;2022-08-14T11:42:05;4.93;;;3.47;;
25263;SDS011;13211;51.796;5.808;2022-08-14T11:45:05;4.18;;;3.60;;
25263;SDS011;13211;51.796;5.808;2022-08-14T11:47:42;6.80;;;3.20;;
25263;SDS011;13211;51.796;5.808;2022-08-14T11:50:33;4.72;;;3.45;;
25263;SDS011;13211;51.796;5.808;2022-08-14T11:53:04;3.22;;;2.42;;
25263;SDS011;13211;51.796;5.808;2022-08-14T11:55:40;5.82;;;3.00;;
25263;SDS011;13211;51.796;5.808;2022-08-14T11:58:09;3.75;;;2.70;;
25263;SDS011;13211;51.796;5.808;2022-08-14T12:00:50;6.22;;;3.05;;
25263;SDS011;13211;51.796;5.808;2022-08-14T12:03:20;4.82;;;3.10;;
25263;SDS011;13211;51.796;5.808;2022-08-14T12:06:04;5.00;;;3.30;;
25263;SDS011;13211;51.796;5.808;2022-08-14T12:08:55;3.70;;;3.33;;
25263;SDS011;13211;51.796;5.808;2022-08-14T12:11:35;5.72;;;3.53;;
25263;SDS011;13211;51.796;5.808;2022-08-14T12:14:13;8.13;;;3.38;;
25263;SDS011;13211;51.796;5.808;2022-08-14T12:17:04;6.18;;;3.45;;
25263;SDS011;13211;51.796;5.808;2022-08-14T12:19:46;5.93;;;3.10;;
25263;SDS011;13211;51.796;5.808;2022-08-14T12:25:04;8.20;;;3.05;;
25263;SDS011;13211;51.796;5.808;2022-08-14T12:27:41;5.43;;;2.95;;
25263;SDS011;13211;51.796;5.808;2022-08-14T12:30:26;8.55;;;3.75;;
25263;SDS011;13211;51.796;5.808;2022-08-14T12:36:19;7.90;;;3.70;;
25263;SDS011;13211;51.796;5.808;2022-08-14T12:38:47;9.18;;;3.17;;
25263;SDS011;13211;51.796;5.808;2022-08-14T12:41:21;6.25;;;3.20;;
25263;SDS011;13211;51.796;5.808;2022-08-14T12:44:03;7.47;;;3.25;;
25263;SDS011;13211;51.796;5.808;2022-08-14T12:49:10;4.18;;;3.00;;
25263;SDS011;13211;51.796;5.808;2022-08-14T12:51:55;3.50;;;3.08;;
25263;SDS011;13211;51.796;5.808;2022-08-14T12:54:24;5.47;;;3.33;;
25263;SDS011;13211;51.796;5.808;2022-08-14T12:57:15;3.28;;;2.88;;
25263;SDS011;13211;51.796;5.808;2022-08-14T12:59:46;5.22;;;3.13;;
25263;SDS011;13211;51.796;5.808;2022-08-14T13:02:22;3.20;;;2.90;;
25263;SDS011;13211;51.796;5.808;2022-08-14T13:04:53;7.80;;;3.33;;
25263;SDS011;13211;51.796;5.808;2022-08-14T13:09:58;3.90;;;3.30;;
25263;SDS011;13211;51.796;5.808;2022-08-14T13:12:49;4.28;;;3.25;;
25263;SDS011;13211;51.796;5.808;2022-08-14T13:15:37;8.15;;;3.08;;
25263;SDS011;13211;51.796;5.808;2022-08-14T13:18:10;6.20;;;3.33;;
25263;SDS011;13211;51.796;5.808;2022-08-14T13:20:41;4.68;;;3.15;;
25263;SDS011;13211;51.796;5.808;2022-08-14T13:23:19;7.00;;;3.03;;
25263;SDS011;13211;51.796;5.808;2022-08-14T13:25:58;3.55;;;2.92;;
25263;SDS011;13211;51.796;5.808;2022-08-14T13:28:30;3.75;;;3.08;;
25263;SDS011;13211;51.796;5.808;2022-08-14T13:31:23;5.80;;;3.20;;
25263;SDS011;13211;51.796;5.808;2022-08-14T13:33:55;4.85;;;3.20;;
25263;SDS011;13211;51.796;5.808;2022-08-14T13:36:26;5.82;;;3.20;;
25263;SDS011;13211;51.796;5.808;2022-08-14T13:39:15;5.63;;;3.08;;
25263;SDS011;13211;51.796;5.808;2022-08-14T13:41:45;7.32;;;2.90;;
25263;SDS011;13211;51.796;5.808;2022-08-14T13:44:21;6.15;;;3.10;;
25263;SDS011;13211;51.796;5.808;2022-08-14T13:46:53;4.95;;;3.20;;
25263;SDS011;13211;51.796;5.808;2022-08-14T13:49:21;3.78;;;3.00;;
25263;SDS011;13211;51.796;5.808;2022-08-14T13:51:50;3.80;;;3.20;;
25263;SDS011;13211;51.796;5.808;2022-08-14T13:54:24;7.35;;;3.33;;
25263;SDS011;13211;51.796;5.808;2022-08-14T13:57:00;4.55;;;3.05;;
25263;SDS011;13211;51.796;5.808;2022-08-14T13:59:29;3.90;;;3.10;;
25263;SDS011;13211;51.796;5.808;2022-08-14T14:02:07;5.43;;;2.90;;
25263;SDS011;13211;51.796;5.808;2022-08-14T14:05:00;5.22;;;3.30;;
25263;SDS011;13211;51.796;5.808;2022-08-14T14:07:33;6.82;;;3.33;;
25263;SDS011;13211;51.796;5.808;2022-08-14T14:10:11;4.20;;;3.05;;
25263;SDS011;13211;51.796;5.808;2022-08-14T14:12:53;4.63;;;3.08;;
25263;SDS011;13211;51.796;5.808;2022-08-14T14:15:22;5.13;;;3.05;;
25263;SDS011;13211;51.796;5.808;2022-08-14T14:18:10;3.43;;;3.13;;
25263;SDS011;13211;51.796;5.808;2022-08-14T14:21:01;3.92;;;3.22;;
25263;SDS011;13211;51.796;5.808;2022-08-14T14:23:30;4.38;;;3.33;;
25263;SDS011;13211;51.796;5.808;2022-08-14T14:26:00;6.53;;;3.35;;
25263;SDS011;13211;51.796;5.808;2022-08-14T14:28:40;3.90;;;3.08;;
25263;SDS011;13211;51.796;5.808;2022-08-14T14:31:10;4.72;;;3.33;;
25263;SDS011;13211;51.796;5.808;2022-08-14T14:33:42;6.73;;;3.40;;
25263;SDS011;13211;51.796;5.808;2022-08-14T14:36:19;4.53;;;3.13;;
25263;SDS011;13211;51.796;5.808;2022-08-14T14:38:57;3.30;;;3.00;;
25263;SDS011;13211;51.796;5.808;2022-08-14T14:41:28;3.60;;;3.28;;
25263;SDS011;13211;51.796;5.808;2022-08-14T14:44:08;5.18;;;3.30;;
25263;SDS011;13211;51.796;5.808;2022-08-14T14:46:42;3.95;;;3.15;;
25263;SDS011;13211;51.796;5.808;2022-08-14T14:49:18;4.38;;;3.50;;
25263;SDS011;13211;51.796;5.808;2022-08-14T14:51:57;4.30;;;3.53;;
25263;SDS011;13211;51.796;5.808;2022-08-14T14:54:26;5.82;;;3.30;;
25263;SDS011;13211;51.796;5.808;2022-08-14T14:56:58;7.47;;;3.58;;
25263;SDS011;13211;51.796;5.808;2022-08-14T14:59:31;5.25;;;3.90;;
25263;SDS011;13211;51.796;5.808;2022-08-14T15:02:02;6.38;;;3.60;;
25263;SDS011;13211;51.796;5.808;2022-08-14T15:04:35;4.03;;;3.03;;
25263;SDS011;13211;51.796;5.808;2022-08-14T15:07:13;6.90;;;3.65;;
25263;SDS011;13211;51.796;5.808;2022-08-14T15:09:46;4.90;;;3.65;;
25263;SDS011;13211;51.796;5.808;2022-08-14T15:12:17;6.10;;;3.95;;
25263;SDS011;13211;51.796;5.808;2022-08-14T15:15:04;3.88;;;3.38;;
25263;SDS011;13211;51.796;5.808;2022-08-14T15:17:35;5.90;;;3.40;;
25263;SDS011;13211;51.796;5.808;2022-08-14T15:20:11;7.30;;;3.90;;
25263;SDS011;13211;51.796;5.808;2022-08-14T15:22:43;5.82;;;3.58;;
25263;SDS011;13211;51.796;5.808;2022-08-14T15:25:17;10.35;;;3.45;;
25263;SDS011;13211;51.796;5.808;2022-08-14T15:27:46;7.13;;;3.40;;
25263;SDS011;13211;51.796;5.808;2022-08-14T15:30:20;6.43;;;3.88;;
25263;SDS011;13211;51.796;5.808;2022-08-14T15:32:50;7.75;;;4.60;;
25263;SDS011;13211;51.796;5.808;2022-08-14T15:35:20;10.45;;;3.60;;
25263;SDS011;13211;51.796;5.808;2022-08-14T15:37:51;7.82;;;5.03;;
25263;SDS011;13211;51.796;5.808;2022-08-14T15:40:22;4.95;;;3.70;;
25263;SDS011;13211;51.796;5.808;2022-08-14T15:42:50;4.88;;;3.83;;
25263;SDS011;13211;51.796;5.808;2022-08-14T15:45:21;7.20;;;4.05;;
25263;SDS011;13211;51.796;5.808;2022-08-14T15:47:49;10.05;;;4.55;;
25263;SDS011;13211;51.796;5.808;2022-08-14T15:50:17;8.55;;;4.25;;
25263;SDS011;13211;51.796;5.808;2022-08-14T15:52:45;5.78;;;3.83;;
25263;SDS011;13211;51.796;5.808;2022-08-14T15:55:14;6.70;;;3.78;;
25263;SDS011;13211;51.796;5.808;2022-08-14T15:57:43;8.60;;;4.97;;
25263;SDS011;13211;51.796;5.808;2022-08-14T16:00:33;5.63;;;3.75;;
25263;SDS011;13211;51.796;5.808;2022-08-14T16:03:20;11.05;;;4.10;;
25263;SDS011;13211;51.796;5.808;2022-08-14T16:06:12;8.63;;;4.25;;
25263;SDS011;13211;51.796;5.808;2022-08-14T16:08:48;5.70;;;4.30;;
25263;SDS011;13211;51.796;5.808;2022-08-14T16:11:25;7.53;;;4.30;;
25263;SDS011;13211;51.796;5.808;2022-08-14T16:13:58;8.95;;;4.43;;
25263;SDS011;13211;51.796;5.808;2022-08-14T16:16:27;7.70;;;3.80;;
25263;SDS011;13211;51.796;5.808;2022-08-14T16:19:18;6.43;;;4.10;;
25263;SDS011;13211;51.796;5.808;2022-08-14T16:21:49;10.15;;;4.13;;
25263;SDS011;13211;51.796;5.808;2022-08-14T16:24:41;7.68;;;3.70;;
25263;SDS011;13211;51.796;5.808;2022-08-14T16:27:29;6.22;;;3.95;;
25263;SDS011;13211;51.796;5.808;2022-08-14T16:30:06;4.95;;;3.80;;
25263;SDS011;13211;51.796;5.808;2022-08-14T16:32:54;6.90;;;3.60;;